createdAt,value
2018-09-13T00:00:30.788Z,17.50
2018-09-13T00:02:59.535Z,17.50
2018-09-13T00:05:28.273Z,17.50
2018-09-13T00:07:56.775Z,17.50
2018-09-13T00:10:25.518Z,17.50
2018-09-13T00:12:54.533Z,17.50
2018-09-13T00:15:22.931Z,17.50
2018-09-13T00:17:51.314Z,17.50
2018-09-13T00:20:20.178Z,17.50
2018-09-13T00:22:49.002Z,17.50
2018-09-13T00:25:17.555Z,17.50
2018-09-13T00:27:46.377Z,17.50
2018-09-13T00:30:14.769Z,17.50
2018-09-13T00:32:43.584Z,17.40
2018-09-13T00:35:12.376Z,17.40
2018-09-13T00:37:40.478Z,17.40
2018-09-13T00:40:08.632Z,17.30
2018-09-13T00:42:37.326Z,17.30
2018-09-13T00:45:05.422Z,17.30
2018-09-13T00:47:33.831Z,17.30
2018-09-13T00:50:02.587Z,17.30
2018-09-13T00:52:31.495Z,17.30
2018-09-13T00:54:59.919Z,17.30
2018-09-13T00:57:28.649Z,17.20
2018-09-13T00:59:57.736Z,17.20
2018-09-13T01:02:26.217Z,17.20
2018-09-13T01:04:54.916Z,17.20
2018-09-13T01:07:23.682Z,17.20
2018-09-13T01:09:53.382Z,17.20
2018-09-13T01:12:23.302Z,17.10
2018-09-13T01:14:52.210Z,17.00
2018-09-13T01:17:20.946Z,17.00
2018-09-13T01:19:49.361Z,17.00
2018-09-13T01:22:18.068Z,16.90
2018-09-13T01:24:46.870Z,16.90
2018-09-13T01:27:15.648Z,16.90
2018-09-13T01:29:44.046Z,16.80
2018-09-13T01:32:12.239Z,16.70
2018-09-13T01:34:40.934Z,16.70
2018-09-13T01:37:09.638Z,16.60
2018-09-13T01:39:38.350Z,16.60
2018-09-13T01:42:07.022Z,16.60
2018-09-13T01:44:35.791Z,16.60
2018-09-13T01:47:04.495Z,16.70
2018-09-13T01:49:33.308Z,16.70
2018-09-13T01:52:01.450Z,16.70
2018-09-13T01:54:30.391Z,16.60
2018-09-13T01:56:59.725Z,16.60
2018-09-13T01:59:28.109Z,16.60
2018-09-13T02:01:56.837Z,16.50
2018-09-13T02:04:25.819Z,16.40
2018-09-13T02:06:54.255Z,16.50
2018-09-13T02:09:22.650Z,16.40
2018-09-13T02:11:51.075Z,16.50
2018-09-13T02:14:19.827Z,16.50
2018-09-13T02:16:48.222Z,16.50
2018-09-13T02:19:16.956Z,16.60
2018-09-13T02:21:45.998Z,16.50
2018-09-13T02:24:14.438Z,16.50
2018-09-13T02:26:42.858Z,16.50
2018-09-13T02:29:11.423Z,16.50
2018-09-13T02:31:40.190Z,16.50
2018-09-13T02:34:09.032Z,16.50
2018-09-13T02:36:38.098Z,16.40
2018-09-13T02:39:07.784Z,16.30
2018-09-13T02:41:37.245Z,16.40
2018-09-13T02:44:06.731Z,16.40
2018-09-13T02:46:35.898Z,16.30
2018-09-13T02:49:04.886Z,16.30
2018-09-13T02:51:34.041Z,16.20
2018-09-13T02:54:02.841Z,16.20
2018-09-13T02:56:31.914Z,16.30
2018-09-13T02:59:01.087Z,16.20
2018-09-13T03:01:30.158Z,16.30
2018-09-13T03:03:58.908Z,16.40
2018-09-13T03:06:27.717Z,16.40
2018-09-13T03:08:56.156Z,16.30
2018-09-13T03:11:24.901Z,16.40
2018-09-13T03:13:53.714Z,16.30
2018-09-13T03:16:22.484Z,16.30
2018-09-13T03:18:50.913Z,16.30
2018-09-13T03:21:19.694Z,16.30
2018-09-13T03:23:48.422Z,16.30
2018-09-13T03:26:16.869Z,16.30
2018-09-13T03:28:45.854Z,16.30
2018-09-13T03:31:14.306Z,16.30
2018-09-13T03:33:42.735Z,16.30
2018-09-13T03:36:11.575Z,16.30
2018-09-13T03:38:40.063Z,16.30
2018-09-13T03:41:08.459Z,16.20
2018-09-13T03:43:37.454Z,16.10
2018-09-13T03:46:05.863Z,16.10
2018-09-13T03:48:34.931Z,16.00
2018-09-13T03:51:04.164Z,16.00
2018-09-13T03:53:32.903Z,16.00
2018-09-13T03:56:01.725Z,16.00
2018-09-13T03:58:30.535Z,16.00
2018-09-13T04:00:59.178Z,15.90
2018-09-13T04:03:27.668Z,15.90
2018-09-13T04:05:56.597Z,15.80
2018-09-13T04:08:25.357Z,15.80
2018-09-13T04:10:54.366Z,15.80
2018-09-13T04:13:23.384Z,15.70
2018-09-13T04:15:52.361Z,15.60
2018-09-13T04:18:21.463Z,15.60
2018-09-13T04:20:51.592Z,15.50
2018-09-13T04:23:20.237Z,15.40
2018-09-13T04:25:48.698Z,15.40
2018-09-13T04:28:17.788Z,15.40
2018-09-13T04:30:46.878Z,15.40
2018-09-13T04:33:15.705Z,15.40
2018-09-13T04:35:44.746Z,15.50
2018-09-13T04:38:13.607Z,15.40
2018-09-13T04:40:42.688Z,15.40
2018-09-13T04:43:11.702Z,15.40
2018-09-13T04:45:40.609Z,15.30
2018-09-13T04:48:09.653Z,15.30
2018-09-13T04:50:38.705Z,15.20
2018-09-13T04:53:07.392Z,15.30
2018-09-13T04:55:36.792Z,15.30
2018-09-13T04:58:05.701Z,15.30
2018-09-13T05:00:34.746Z,15.30
2018-09-13T05:03:03.900Z,15.30
2018-09-13T05:05:32.910Z,15.40
2018-09-13T05:08:01.604Z,15.40
2018-09-13T05:10:30.368Z,15.40
2018-09-13T05:12:59.378Z,15.40
2018-09-13T05:15:28.377Z,15.50
2018-09-13T05:17:57.707Z,15.50
2018-09-13T05:20:26.697Z,15.50
2018-09-13T05:22:55.524Z,15.50
2018-09-13T05:25:24.533Z,15.50
2018-09-13T05:27:53.796Z,15.60
2018-09-13T05:30:22.483Z,15.50
2018-09-13T05:32:51.818Z,15.50
2018-09-13T05:35:20.789Z,15.30
2018-09-13T05:37:49.136Z,15.30
2018-09-13T05:40:18.105Z,15.30
2018-09-13T05:42:47.136Z,15.30
2018-09-13T05:45:16.679Z,15.40
2018-09-13T05:47:45.824Z,15.40
2018-09-13T05:50:14.799Z,15.40
2018-09-13T05:52:43.798Z,15.30
2018-09-13T05:55:13.179Z,15.40
2018-09-13T05:57:42.198Z,15.30
2018-09-13T06:00:11.461Z,15.30
2018-09-13T06:02:40.670Z,15.30
2018-09-13T06:05:09.112Z,15.40
2018-09-13T06:07:38.213Z,15.20
2018-09-13T06:10:06.919Z,15.20
2018-09-13T06:12:35.659Z,15.30
2018-09-13T06:15:04.072Z,15.20
2018-09-13T06:17:33.161Z,15.20
2018-09-13T06:20:02.169Z,15.20
2018-09-13T06:22:31.180Z,15.30
2018-09-13T06:24:59.879Z,15.20
2018-09-13T06:27:28.612Z,15.20
2018-09-13T06:29:57.902Z,15.30
2018-09-13T06:32:26.881Z,15.30
2018-09-13T06:34:55.392Z,15.20
2018-09-13T06:37:24.511Z,15.20
2018-09-13T06:39:53.560Z,15.20
2018-09-13T06:42:22.653Z,15.20
2018-09-13T06:44:52.075Z,15.10
2018-09-13T06:47:20.767Z,15.10
2018-09-13T06:49:49.886Z,15.40
2018-09-13T06:52:19.234Z,15.60
2018-09-13T06:54:48.448Z,15.60
2018-09-13T06:57:17.161Z,15.90
2018-09-13T06:59:46.178Z,15.90
2018-09-13T07:02:15.327Z,15.90
2018-09-13T07:04:43.788Z,16.00
2018-09-13T07:07:12.566Z,15.90
2018-09-13T07:09:41.525Z,15.80
2018-09-13T07:12:10.530Z,15.60
2018-09-13T07:14:39.535Z,15.70
2018-09-13T07:17:08.675Z,15.80
2018-09-13T07:19:37.474Z,15.60
2018-09-13T07:22:06.231Z,15.60
2018-09-13T07:24:35.191Z,15.60
2018-09-13T07:27:03.955Z,15.50
2018-09-13T07:29:32.950Z,15.50
2018-09-13T07:32:02.016Z,15.50
2018-09-13T07:34:30.672Z,15.40
2018-09-13T07:36:59.725Z,15.50
2018-09-13T07:39:28.559Z,15.60
2018-09-13T07:41:57.313Z,15.60
2018-09-13T07:44:25.740Z,15.60
2018-09-13T07:46:55.163Z,15.50
2018-09-13T07:49:24.104Z,15.40
2018-09-13T07:51:53.848Z,15.40
2018-09-13T07:54:22.830Z,15.40
2018-09-13T07:56:51.215Z,15.50
2018-09-13T07:59:20.287Z,15.50
2018-09-13T08:01:49.301Z,15.60
2018-09-13T08:04:18.812Z,15.70
2018-09-13T08:06:48.017Z,15.70
2018-09-13T08:09:16.864Z,15.80
2018-09-13T08:11:45.927Z,15.90
2018-09-13T08:14:14.923Z,16.00
2018-09-13T08:16:43.323Z,16.10
2018-09-13T08:19:12.339Z,15.80
2018-09-13T08:21:41.591Z,15.50
2018-09-13T08:24:10.117Z,15.50
2018-09-13T08:26:38.536Z,15.40
2018-09-13T08:29:07.383Z,15.50
2018-09-13T08:31:35.961Z,15.70
2018-09-13T08:34:04.527Z,15.80
2018-09-13T08:36:32.687Z,16.00
2018-09-13T08:39:01.277Z,16.20
2018-09-13T08:41:30.019Z,16.20
2018-09-13T08:43:58.947Z,16.10
2018-09-13T08:46:27.759Z,16.20
2018-09-13T08:48:56.856Z,16.20
2018-09-13T08:51:25.304Z,16.20
2018-09-13T08:53:53.782Z,16.20
2018-09-13T08:56:22.529Z,16.30
2018-09-13T08:58:50.679Z,16.40
2018-09-13T09:01:19.904Z,16.40
2018-09-13T09:03:48.696Z,16.50
2018-09-13T09:06:17.132Z,16.50
2018-09-13T09:08:45.914Z,16.40
2018-09-13T09:11:14.723Z,16.50
2018-09-13T09:13:43.456Z,16.30
2018-09-13T09:16:12.188Z,16.30
2018-09-13T09:18:40.518Z,16.20
2018-09-13T09:21:08.660Z,16.10
2018-09-13T09:23:36.979Z,16.00
2018-09-13T09:26:05.595Z,16.00
2018-09-13T09:28:34.241Z,16.00
2018-09-13T09:31:02.793Z,15.80
2018-09-13T09:33:31.653Z,15.90
2018-09-13T09:36:01.018Z,15.90
2018-09-13T09:38:30.107Z,15.90
2018-09-13T09:40:58.921Z,15.80
2018-09-13T09:43:27.747Z,15.90
2018-09-13T09:45:56.550Z,15.80
2018-09-13T09:48:25.302Z,15.80
2018-09-13T09:50:53.757Z,15.80
2018-09-13T09:53:22.546Z,16.00
2018-09-13T09:55:52.246Z,16.00
2018-09-13T09:58:20.835Z,16.10
2018-09-13T10:00:54.738Z,16.10
2018-09-13T10:03:23.591Z,16.30
2018-09-13T10:05:52.026Z,16.20
2018-09-13T10:08:20.986Z,16.20
2018-09-13T10:10:49.468Z,16.30
2018-09-13T10:13:18.277Z,16.40
2018-09-13T10:15:52.637Z,16.40
2018-09-13T10:18:26.383Z,16.30
2018-09-13T10:21:00.720Z,16.20
2018-09-13T10:23:34.661Z,16.20
2018-09-13T10:26:08.643Z,16.20
2018-09-13T10:28:42.551Z,16.10
2018-09-13T10:31:16.897Z,16.20
2018-09-13T10:33:50.857Z,16.20
2018-09-13T10:36:25.211Z,16.30
2018-09-13T10:38:58.869Z,16.50
2018-09-13T10:41:33.646Z,16.50
2018-09-13T10:44:07.641Z,16.50
2018-09-13T10:46:36.443Z,16.60
2018-09-13T10:49:11.128Z,16.60
2018-09-13T10:52:03.807Z,16.80
2018-09-13T10:54:37.440Z,16.90
2018-09-13T10:57:11.711Z,16.90
2018-09-13T10:59:40.236Z,16.80
2018-09-13T11:02:08.746Z,16.70
2018-09-13T11:04:37.969Z,16.90
2018-09-13T11:07:06.809Z,16.90
2018-09-13T11:09:35.455Z,16.80
2018-09-13T11:12:03.901Z,16.80
2018-09-13T11:14:38.207Z,16.80
2018-09-13T11:17:06.579Z,16.90
2018-09-13T11:19:35.158Z,17.00
2018-09-13T11:22:03.745Z,17.10
2018-09-13T11:24:33.073Z,17.10
2018-09-13T11:27:01.718Z,17.10
2018-09-13T11:29:31.160Z,17.20
2018-09-13T11:31:59.766Z,17.40
2018-09-13T11:34:28.575Z,17.50
2018-09-13T11:36:57.164Z,17.50
2018-09-13T11:39:25.803Z,17.50
2018-09-13T11:41:54.636Z,17.70
2018-09-13T11:44:23.444Z,17.50
2018-09-13T11:46:52.202Z,17.40
2018-09-13T11:49:21.027Z,17.40
2018-09-13T11:51:50.100Z,17.60
2018-09-13T11:54:18.260Z,17.50
2018-09-13T11:56:47.247Z,17.40
2018-09-13T11:59:15.899Z,17.60
2018-09-13T12:01:44.331Z,17.60
2018-09-13T12:04:13.178Z,17.70
2018-09-13T12:06:41.534Z,17.70
2018-09-13T12:09:11.804Z,17.60
2018-09-13T12:11:40.452Z,17.70
2018-09-13T12:14:09.694Z,17.90
2018-09-13T12:16:38.482Z,18.00
2018-09-13T12:19:07.712Z,18.20
2018-09-13T12:21:36.160Z,18.30
2018-09-13T12:24:04.778Z,18.20
2018-09-13T12:26:33.741Z,18.20
2018-09-13T12:29:04.622Z,18.30
2018-09-13T12:31:33.253Z,18.40
2018-09-13T12:34:01.778Z,18.20
2018-09-13T12:36:30.669Z,18.20
2018-09-13T12:38:59.743Z,18.40
2018-09-13T12:41:28.663Z,18.20
2018-09-13T12:43:57.518Z,18.20
2018-09-13T12:46:26.570Z,18.20
2018-09-13T12:48:55.231Z,18.20
2018-09-13T12:51:23.537Z,18.10
2018-09-13T12:53:52.342Z,18.20
2018-09-13T12:56:21.123Z,18.30
2018-09-13T12:58:49.826Z,18.30
2018-09-13T13:01:18.662Z,18.30
2018-09-13T13:03:46.796Z,18.20
2018-09-13T13:06:15.654Z,18.20
2018-09-13T13:08:44.145Z,18.00
2018-09-13T13:11:12.571Z,17.90
2018-09-13T13:13:41.221Z,17.80
2018-09-13T13:16:09.679Z,17.90
2018-09-13T13:18:37.808Z,17.90
2018-09-13T13:21:06.262Z,17.90
2018-09-13T13:23:35.113Z,18.00
2018-09-13T13:26:03.952Z,18.10
2018-09-13T13:28:32.950Z,18.00
2018-09-13T13:31:01.781Z,18.10
2018-09-13T13:33:30.584Z,17.80
2018-09-13T13:35:59.140Z,17.70
2018-09-13T13:38:27.768Z,17.90
2018-09-13T13:40:56.248Z,17.80
2018-09-13T13:43:25.134Z,17.80
2018-09-13T13:45:53.945Z,17.90
2018-09-13T13:48:22.747Z,17.80
2018-09-13T13:50:51.568Z,17.90
2018-09-13T13:53:20.429Z,17.90
2018-09-13T13:55:48.887Z,18.00
2018-09-13T13:58:17.797Z,18.00
2018-09-13T14:00:46.201Z,18.20
2018-09-13T14:03:14.981Z,18.30
2018-09-13T14:05:43.783Z,18.20
2018-09-13T14:08:12.504Z,18.20
2018-09-13T14:10:40.953Z,18.10
2018-09-13T14:13:09.863Z,18.10
2018-09-13T14:15:38.695Z,18.10
2018-09-13T14:18:07.213Z,18.10
2018-09-13T14:20:36.222Z,18.20
2018-09-13T14:23:04.765Z,18.20
2018-09-13T14:25:33.578Z,18.10
2018-09-13T14:28:02.751Z,18.10
2018-09-13T14:30:31.171Z,18.20
2018-09-13T14:32:59.908Z,18.20
2018-09-13T14:35:28.824Z,18.20
2018-09-13T14:37:57.772Z,18.10
2018-09-13T14:40:26.526Z,18.10
2018-09-13T14:42:55.606Z,18.00
2018-09-13T14:45:24.367Z,17.90
2018-09-13T14:47:53.453Z,17.90
2018-09-13T14:50:21.977Z,17.90
2018-09-13T14:52:50.787Z,18.20
2018-09-13T14:55:19.615Z,18.10
2018-09-13T14:57:48.526Z,18.10
2018-09-13T15:00:16.958Z,18.00
2018-09-13T15:02:45.858Z,17.90
2018-09-13T15:05:14.834Z,18.00
2018-09-13T15:07:43.594Z,17.90
2018-09-13T15:10:12.812Z,17.90
2018-09-13T15:12:41.917Z,17.90
2018-09-13T15:15:10.491Z,17.90
2018-09-13T15:17:39.272Z,17.80
2018-09-13T15:20:08.067Z,17.80
2018-09-13T15:22:36.772Z,17.90
2018-09-13T15:25:04.976Z,17.70
2018-09-13T15:27:33.887Z,17.70
2018-09-13T15:30:02.075Z,17.60
2018-09-13T15:32:30.490Z,17.60
2018-09-13T15:34:59.533Z,17.50
2018-09-13T15:37:27.951Z,17.30
2018-09-13T15:39:56.727Z,17.30
2018-09-13T15:42:25.939Z,17.30
2018-09-13T15:44:54.363Z,17.20
2018-09-13T15:47:22.798Z,17.20
2018-09-13T15:49:51.765Z,17.20
2018-09-13T15:52:20.194Z,17.10
2018-09-13T15:54:48.988Z,17.20
2018-09-13T15:57:17.541Z,17.30
2018-09-13T15:59:46.091Z,17.30
2018-09-13T16:02:14.916Z,17.30
2018-09-13T16:04:43.467Z,17.40
2018-09-13T16:07:11.877Z,17.30
2018-09-13T16:09:40.353Z,17.20
2018-09-13T16:12:08.925Z,17.20
2018-09-13T16:14:37.488Z,17.10
2018-09-13T16:17:06.242Z,17.00
2018-09-13T16:19:35.101Z,16.90
2018-09-13T16:22:03.858Z,16.90
2018-09-13T16:24:32.610Z,16.90
2018-09-13T16:27:01.731Z,16.90
2018-09-13T16:29:30.227Z,16.90
2018-09-13T16:31:58.987Z,16.90
2018-09-13T16:34:27.858Z,16.90
2018-09-13T16:37:09.027Z,16.90
2018-09-13T16:39:43.752Z,16.90
2018-09-13T16:42:17.591Z,16.90
2018-09-13T16:44:49.693Z,16.80
2018-09-13T16:47:28.880Z,16.90
2018-09-13T16:49:59.157Z,16.80
2018-09-13T16:52:28.542Z,16.80
2018-09-13T16:54:57.257Z,16.70
2018-09-13T16:57:25.971Z,16.80
2018-09-13T16:59:54.424Z,16.80
2018-09-13T17:02:23.233Z,16.80
2018-09-13T17:04:51.399Z,16.80
2018-09-13T17:07:20.144Z,16.70
2018-09-13T17:09:48.731Z,16.70
2018-09-13T17:12:16.909Z,16.60
2018-09-13T17:14:45.623Z,16.50
2018-09-13T17:17:14.698Z,16.50
2018-09-13T17:19:43.185Z,16.40
2018-09-13T17:22:12.029Z,16.40
2018-09-13T17:24:40.760Z,16.40
2018-09-13T17:27:09.303Z,16.50
2018-09-13T17:29:38.066Z,16.40
2018-09-13T17:32:06.504Z,16.40
2018-09-13T17:34:35.561Z,16.30
2018-09-13T17:37:04.015Z,16.20
2018-09-13T17:39:32.814Z,16.20
2018-09-13T17:42:01.906Z,16.10
2018-09-13T17:44:30.011Z,16.20
2018-09-13T17:46:58.709Z,16.20
2018-09-13T17:49:27.904Z,16.20
2018-09-13T17:51:56.720Z,16.30
2018-09-13T17:54:25.453Z,16.30
2018-09-13T17:56:54.340Z,16.20
2018-09-13T17:59:23.129Z,16.10
2018-09-13T18:01:51.898Z,16.10
2018-09-13T18:04:21.038Z,16.10
2018-09-13T18:06:49.795Z,16.10
2018-09-13T18:09:18.575Z,16.10
2018-09-13T18:11:47.326Z,16.20
2018-09-13T18:14:15.742Z,16.20
2018-09-13T18:16:44.558Z,16.20
2018-09-13T18:19:13.064Z,16.20
2018-09-13T18:21:41.713Z,16.20
2018-09-13T18:24:10.551Z,16.10
2018-09-13T18:26:39.085Z,16.10
2018-09-13T18:29:07.551Z,16.10
2018-09-13T18:31:36.423Z,16.10
2018-09-13T18:34:05.180Z,16.10
2018-09-13T18:36:33.631Z,16.10
2018-09-13T18:39:02.451Z,16.00
2018-09-13T18:41:30.911Z,16.00
2018-09-13T18:43:59.659Z,16.00
2018-09-13T18:46:28.171Z,15.90
2018-09-13T18:48:56.566Z,15.90
2018-09-13T18:51:25.286Z,15.90
2018-09-13T18:53:54.645Z,15.90
2018-09-13T18:56:23.855Z,15.90
2018-09-13T18:58:52.853Z,15.90
2018-09-13T19:01:21.362Z,15.80
2018-09-13T19:03:49.762Z,15.70
2018-09-13T19:06:18.220Z,15.70
2018-09-13T19:08:47.188Z,15.60
2018-09-13T19:11:15.690Z,15.60
2018-09-13T19:13:44.290Z,15.50
2018-09-13T19:16:13.144Z,15.50
2018-09-13T19:18:42.076Z,15.40
2018-09-13T19:21:11.272Z,15.40
2018-09-13T19:23:40.523Z,15.50
2018-09-13T19:26:09.007Z,15.50
2018-09-13T19:28:37.452Z,15.50
2018-09-13T19:31:06.994Z,15.50
2018-09-13T19:33:36.071Z,15.40
2018-09-13T19:36:05.326Z,15.30
2018-09-13T19:38:34.435Z,15.30
2018-09-13T19:41:03.612Z,15.20
2018-09-13T19:43:32.810Z,15.20
2018-09-13T19:46:01.709Z,15.30
2018-09-13T19:48:30.489Z,15.30
2018-09-13T19:50:59.507Z,15.20
2018-09-13T19:53:28.328Z,15.20
2018-09-13T19:55:57.131Z,15.30
2018-09-13T19:58:26.264Z,15.30
2018-09-13T20:00:55.415Z,15.40
2018-09-13T20:03:24.256Z,15.30
2018-09-13T20:05:53.448Z,15.30
2018-09-13T20:08:22.539Z,15.40
2018-09-13T20:10:51.663Z,15.40
2018-09-13T20:13:20.354Z,15.40
2018-09-13T20:15:49.396Z,15.30
2018-09-13T20:18:18.283Z,15.20
2018-09-13T20:20:47.150Z,15.20
2018-09-13T20:23:15.986Z,15.20
2018-09-13T20:25:45.472Z,15.10
2018-09-13T20:28:14.215Z,15.20
2018-09-13T20:30:42.697Z,15.20
2018-09-13T20:33:11.537Z,15.30
2018-09-13T20:35:40.513Z,15.30
2018-09-13T20:38:09.765Z,15.30
2018-09-13T20:40:38.884Z,15.30
2018-09-13T20:43:07.968Z,15.30
2018-09-13T20:45:36.739Z,15.40
2018-09-13T20:48:05.648Z,15.40
2018-09-13T20:50:34.610Z,15.30
2018-09-13T20:53:03.330Z,15.30
2018-09-13T20:55:32.637Z,15.30
2018-09-13T20:58:00.784Z,15.40
2018-09-13T21:00:29.838Z,15.40
2018-09-13T21:02:58.350Z,15.30
2018-09-13T21:05:27.246Z,15.30
2018-09-13T21:07:55.614Z,15.40
2018-09-13T21:10:24.868Z,15.30
2018-09-13T21:12:53.267Z,15.30
2018-09-13T21:15:22.348Z,15.30
2018-09-13T21:17:51.217Z,15.40
2018-09-13T21:20:19.850Z,15.40
2018-09-13T21:22:48.583Z,15.40
2018-09-13T21:25:17.093Z,15.40
2018-09-13T21:27:46.507Z,15.40
2018-09-13T21:30:14.919Z,15.40
2018-09-13T21:32:44.033Z,15.40
2018-09-13T21:35:13.288Z,15.40
2018-09-13T21:37:42.101Z,15.40
2018-09-13T21:40:11.182Z,15.40
2018-09-13T21:42:39.598Z,15.40
2018-09-13T21:45:08.658Z,15.40
2018-09-13T21:47:37.457Z,15.30
2018-09-13T21:50:06.590Z,15.30
2018-09-13T21:52:35.333Z,15.30
2018-09-13T21:55:04.449Z,15.30
2018-09-13T21:57:33.450Z,15.30
2018-09-13T22:00:02.187Z,15.30
2018-09-13T22:02:31.218Z,15.30
2018-09-13T22:05:00.220Z,15.20
2018-09-13T22:07:29.958Z,15.20
2018-09-13T22:09:58.974Z,15.10
2018-09-13T22:12:27.322Z,15.20
2018-09-13T22:14:56.548Z,15.20
2018-09-13T22:17:25.065Z,15.10
2018-09-13T22:19:53.883Z,15.10
2018-09-13T22:22:23.350Z,15.00
2018-09-13T22:24:51.761Z,15.00
2018-09-13T22:27:20.950Z,15.00
2018-09-13T22:29:50.042Z,15.00
2018-09-13T22:32:19.561Z,15.00
2018-09-13T22:34:48.750Z,15.00
2018-09-13T22:37:17.509Z,15.00
2018-09-13T22:39:46.709Z,15.00
2018-09-13T22:42:15.541Z,15.10
2018-09-13T22:44:44.013Z,15.10
2018-09-13T22:47:13.080Z,15.10
2018-09-13T22:49:42.164Z,15.10
2018-09-13T22:52:11.205Z,15.10
2018-09-13T22:54:40.242Z,15.10
2018-09-13T22:57:08.986Z,15.10
2018-09-13T22:59:37.707Z,15.10
2018-09-13T23:02:06.866Z,15.10
2018-09-13T23:04:35.884Z,15.20
2018-09-13T23:07:05.068Z,15.20
2018-09-13T23:09:34.460Z,15.20
2018-09-13T23:12:03.530Z,15.20
2018-09-13T23:14:31.972Z,15.20
2018-09-13T23:17:01.068Z,15.20
2018-09-13T23:19:30.217Z,15.20
2018-09-13T23:21:59.034Z,15.20
2018-09-13T23:24:27.561Z,15.20
2018-09-13T23:26:56.632Z,15.20
2018-09-13T23:29:25.731Z,15.20
2018-09-13T23:31:54.943Z,15.20
2018-09-13T23:34:23.356Z,15.30
2018-09-13T23:36:52.156Z,15.20
2018-09-13T23:39:21.381Z,15.20
2018-09-13T23:41:50.310Z,15.20
2018-09-13T23:44:18.677Z,15.20
2018-09-13T23:46:47.444Z,15.20
2018-09-13T23:49:16.190Z,15.30
2018-09-13T23:51:45.244Z,15.30
2018-09-13T23:54:14.049Z,15.30
2018-09-13T23:56:42.466Z,15.30
2018-09-13T23:59:11.477Z,15.40
